Time;durP1;ratioP1;P1;durP2;ratioP2;P2;SDS_P1;SDS_P2;PMS_P1;PMS_P2;Temp;Humidity;BMP_temperature;BMP_pressure;BME280_temperature;BME280_humidity;BME280_pressure;Samples;Min_cycle;Max_cycle;Signal;HPM_P1;HPM_P2
2023/01/10 00:00:05;;;;;;;90.07;46.47;;;;;;;6.44;95.08;99145.25;5094362;28;20201;-56
2023/01/10 00:02:34;;;;;;;92.57;47.07;;;;;;;6.40;94.91;99138.31;5094137;28;20189;-56
2023/01/10 00:05:00;;;;;;;112.30;46.87;;;;;;;6.40;95.06;99151.06;5093865;28;20721;-56
2023/01/10 00:07:27;;;;;;;94.33;48.10;;;;;;;6.35;94.91;99133.91;5094106;28;20635;-56
2023/01/10 00:09:54;;;;;;;101.70;47.77;;;;;;;6.36;94.38;99136.50;5093428;28;20194;-55
2023/01/10 00:15:06;;;;;;;92.43;47.57;;;;;;;6.31;94.00;99122.78;5105244;28;20199;-55
2023/01/10 00:17:34;;;;;;;86.67;45.80;;;;;;;6.37;94.04;99124.63;5097790;28;20275;-55
2023/01/10 00:20:01;;;;;;;111.60;47.33;;;;;;;6.42;94.20;99113.72;5093847;28;20615;-55
2023/01/10 00:22:27;;;;;;;97.80;45.93;;;;;;;6.39;94.05;99111.09;5095177;28;20185;-56
2023/01/10 00:24:54;;;;;;;88.17;46.40;;;;;;;6.42;93.54;99110.31;5107693;28;20185;-54
2023/01/10 00:27:22;;;;;;;99.57;47.77;;;;;;;6.40;93.56;99092.38;5105330;28;20215;-54
2023/01/10 00:29:51;;;;;;;97.93;47.67;;;;;;;6.36;92.91;99088.03;5113736;28;20207;-55
2023/01/10 00:32:18;;;;;;;102.45;56.80;;;;;;;6.47;94.18;99095.97;5112744;28;20466;-56
2023/01/10 00:34:46;;;;;;;93.53;47.87;;;;;;;6.51;93.41;99088.41;5113666;28;20206;-56
2023/01/10 00:37:13;;;;;;;94.47;48.73;;;;;;;6.48;93.00;99084.94;5113651;28;20221;-56
2023/01/10 00:39:40;;;;;;;98.70;47.97;;;;;;;6.49;93.14;99069.66;5113709;28;20195;-56
2023/01/10 00:44:51;;;;;;;93.10;47.93;;;;;;;6.60;92.01;99081.81;5113878;28;20192;-56
2023/01/10 00:47:18;;;;;;;93.53;47.97;;;;;;;6.52;92.43;99056.97;5113682;28;20193;-56
2023/01/10 00:49:46;;;;;;;106.07;49.70;;;;;;;6.48;92.21;99078.13;5113519;28;20191;-56
2023/01/10 00:52:13;;;;;;;92.57;45.83;;;;;;;6.45;93.04;99087.41;5113780;28;20189;-56
2023/01/10 00:54:40;;;;;;;83.70;45.20;;;;;;;6.48;93.38;99088.34;5113403;28;20195;-56
2023/01/10 00:57:07;;;;;;;79.80;43.77;;;;;;;6.45;92.76;99075.53;5113196;28;20687;-56
2023/01/10 00:59:34;;;;;;;83.50;45.20;;;;;;;6.43;93.33;99076.28;5113262;28;20195;-56
2023/01/10 01:02:00;;;;;;;85.97;44.10;;;;;;;6.46;93.85;99081.47;5113182;28;20576;-56
2023/01/10 01:04:27;;;;;;;87.13;44.53;;;;;;;6.47;93.18;99076.44;5113272;28;20247;-55
2023/01/10 01:06:55;;;;;;;82.20;44.03;;;;;;;6.48;93.63;99078.13;5113387;28;20280;-56
2023/01/10 01:09:22;;;;;;;84.33;45.07;;;;;;;6.52;93.69;99059.53;5113183;28;20184;-56
2023/01/10 01:11:49;;;;;;;82.90;44.27;;;;;;;6.50;92.83;99065.44;5113019;28;20196;-56
2023/01/10 01:14:16;;;;;;;81.63;44.53;;;;;;;6.47;93.11;99065.34;5112942;28;20189;-56
2023/01/10 01:16:42;;;;;;;76.33;41.97;;;;;;;6.50;93.85;99062.88;5113065;28;20249;-55
2023/01/10 01:19:10;;;;;;;89.93;44.37;;;;;;;6.54;92.95;99068.09;5113118;28;20290;-56
2023/01/10 01:21:36;;;;;;;86.00;44.47;;;;;;;6.53;92.78;99074.03;5112680;28;20189;-55
2023/01/10 01:24:05;;;;;;;87.77;44.53;;;;;;;6.52;92.81;99062.09;5112918;28;20189;-56
2023/01/10 01:26:34;;;;;;;86.17;43.73;;;;;;;6.49;93.28;99062.00;5112735;28;20190;-56
2023/01/10 01:29:00;;;;;;;82.90;44.07;;;;;;;6.53;93.38;99053.63;5113295;28;20194;-56
2023/01/10 01:31:27;;;;;;;98.67;44.53;;;;;;;6.54;93.50;99068.09;5112803;28;20194;-56
2023/01/10 01:33:54;;;;;;;83.30;44.30;;;;;;;6.44;93.71;99052.50;5112757;28;20192;-56
2023/01/10 01:36:21;;;;;;;83.57;42.67;;;;;;;6.44;93.38;99062.72;5112813;28;20246;-56
2023/01/10 01:38:48;;;;;;;88.23;41.10;;;;;;;6.44;93.57;99047.41;5112490;28;20214;-55
2023/01/10 01:44:06;;;;;;;89.47;41.57;;;;;;;6.37;95.06;99017.47;5112984;28;20290;-55
2023/01/10 01:46:35;;;;;;;86.93;43.43;;;;;;;6.49;95.21;99036.50;5112368;28;20187;-55
2023/01/10 01:49:05;;;;;;;79.00;40.20;;;;;;;6.57;94.56;99023.91;5112622;28;20203;-55
2023/01/10 01:51:34;;;;;;;77.20;41.03;;;;;;;6.53;94.44;98994.06;5113175;28;20189;-55
2023/01/10 01:54:04;;;;;;;84.37;41.73;;;;;;;6.58;94.89;99000.13;5112453;28;20648;-56
2023/01/10 01:56:38;;;;;;;80.07;39.42;;;;;;;6.57;94.21;99011.16;5112470;28;20879;-55
2023/01/10 01:59:10;;;;;;;76.27;40.37;;;;;;;6.59;95.36;99018.88;5110927;28;20273;-55
2023/01/10 02:01:40;;;;;;;92.87;41.93;;;;;;;6.62;94.29;99009.56;5112329;28;20196;-55
2023/01/10 02:04:11;;;;;;;82.33;39.73;;;;;;;6.65;94.33;98998.59;5112513;28;20190;-55
2023/01/10 02:06:38;;;;;;;76.63;40.53;;;;;;;6.63;94.88;98993.44;5112026;28;20318;-55
2023/01/10 02:09:12;;;;;;;85.43;40.27;;;;;;;6.61;95.02;98979.78;5112492;28;20194;-55
2023/01/10 02:11:40;;;;;;;82.73;41.60;;;;;;;6.37;94.23;98953.69;5112635;28;20192;-55
2023/01/10 02:14:11;;;;;;;82.67;39.90;;;;;;;6.36;95.39;98960.47;5112141;28;20194;-55
2023/01/10 02:16:38;;;;;;;87.63;42.47;;;;;;;6.30;96.19;98965.44;5113131;28;20192;-55
2023/01/10 02:19:13;;;;;;;85.13;41.47;;;;;;;6.35;96.41;98962.97;5112344;28;20216;-55
2023/01/10 02:22:01;;;;;;;78.00;41.63;;;;;;;6.40;97.17;98962.25;5112764;28;20200;-55
2023/01/10 02:25:06;;;;;;;79.83;43.73;;;;;;;6.41;95.90;98974.22;5112406;28;20577;-55
2023/01/10 02:27:47;;;;;;;104.50;61.33;;;;;;;6.53;95.14;98935.38;5038368;28;20448;-56
2023/01/10 02:30:44;;;;;;;90.33;52.00;;;;;;;6.48;93.85;98937.78;5098557;28;20283;-55
2023/01/10 02:33:21;;;;;;;102.23;52.13;;;;;;;6.48;92.83;98916.53;5087874;28;20214;-55
2023/01/10 02:36:06;;;;;;;95.90;50.33;;;;;;;6.51;92.91;98911.47;5095927;28;20192;-55
2023/01/10 02:38:40;;;;;;;89.97;47.93;;;;;;;6.46;92.97;98921.59;5095867;28;20224;-55
2023/01/10 02:41:17;;;;;;;90.60;48.90;;;;;;;6.46;93.53;98943.69;5095746;28;20192;-55
2023/01/10 02:43:50;;;;;;;101.60;50.13;;;;;;;6.42;93.01;98934.25;5096479;28;20189;-55
2023/01/10 02:46:23;;;;;;;102.33;51.17;;;;;;;6.45;93.59;98952.19;5096069;28;20196;-55
2023/01/10 02:48:52;;;;;;;91.90;50.73;;;;;;;6.42;93.47;98950.44;5095520;28;20206;-56
2023/01/10 02:51:22;;;;;;;106.40;52.20;;;;;;;6.39;93.87;98932.50;5095477;28;20189;-55
2023/01/10 02:53:55;;;;;;;97.27;49.80;;;;;;;6.34;93.84;98941.72;5095526;28;20198;-55
2023/01/10 02:57:00;;;;;;;94.33;50.87;;;;;;;6.34;93.77;98940.88;5095754;28;20215;-55
2023/01/10 02:59:58;;;;;;;97.53;51.17;;;;;;;6.38;94.75;98940.09;5095592;28;20239;-55
2023/01/10 03:02:40;;;;;;;99.37;49.77;;;;;;;6.37;94.06;98934.13;5095335;28;20664;-55
2023/01/10 03:05:19;;;;;;;93.10;51.03;;;;;;;6.41;93.65;98932.50;5095890;28;20199;-55
2023/01/10 03:07:54;;;;;;;100.60;50.13;;;;;;;6.44;94.35;98935.13;5095624;28;20190;-55
2023/01/10 03:10:28;;;;;;;113.07;52.70;;;;;;;6.43;93.90;98935.97;5095296;28;20608;-56
2023/01/10 03:13:01;;;;;;;116.47;60.47;;;;;;;6.37;94.82;98933.28;5095145;28;20436;-56
2023/01/10 03:15:32;;;;;;;114.20;53.03;;;;;;;6.37;94.74;98939.22;5095542;28;20194;-55
2023/01/10 03:18:02;;;;;;;106.03;53.93;;;;;;;6.37;95.33;98933.28;5095177;28;20646;-56
2023/01/10 03:20:35;;;;;;;108.50;53.33;;;;;;;6.33;96.11;98918.72;5094899;28;20195;-56
2023/01/10 03:23:05;;;;;;;113.77;54.83;;;;;;;6.31;96.32;98908.50;5095037;28;20254;-56
2023/01/10 03:25:36;;;;;;;101.43;50.57;;;;;;;6.30;96.61;98909.31;5094913;28;20201;-56
2023/01/10 03:28:07;;;;;;;108.70;52.97;;;;;;;6.31;96.69;98910.19;5095411;28;20193;-56
2023/01/10 03:30:41;;;;;;;113.27;55.50;;;;;;;6.32;97.42;98922.94;5095092;28;20198;-56
2023/01/10 03:33:10;;;;;;;122.43;55.97;;;;;;;6.32;97.57;98920.41;5094878;28;20191;-56
2023/01/10 03:35:53;;;;;;;112.27;53.77;;;;;;;6.34;98.78;98907.69;5094538;28;20185;-56
2023/01/10 03:38:27;;;;;;;129.17;53.40;;;;;;;6.25;99.19;98893.03;5094800;28;20216;-56
2023/01/10 03:41:04;;;;;;;122.13;56.03;;;;;;;6.27;98.86;98880.31;5094664;28;20428;-56
2023/01/10 03:46:30;;;;;;;129.27;55.70;;;;;;;6.30;100.00;98900.78;5094452;28;20198;-56
2023/01/10 03:48:59;;;;;;;123.10;52.73;;;;;;;6.34;99.99;98905.16;5095073;28;20197;-56
2023/01/10 03:51:29;;;;;;;143.20;68.13;;;;;;;6.39;100.00;98895.91;5093767;28;20459;-56
2023/01/10 03:53:59;;;;;;;128.43;56.83;;;;;;;6.33;100.00;98883.88;5098027;28;20488;-56
2023/01/10 03:56:26;;;;;;;140.77;56.10;;;;;;;6.36;99.23;98863.53;5114323;28;20274;-56
2023/01/10 03:58:53;;;;;;;128.40;56.37;;;;;;;6.37;99.39;98867.78;5114798;28;20302;-55
2023/01/10 04:01:20;;;;;;;120.47;56.77;;;;;;;6.39;99.27;98860.19;5114806;28;20185;-55
2023/01/10 04:03:47;;;;;;;118.93;53.00;;;;;;;6.33;99.03;98837.97;5114381;28;20192;-55
2023/01/10 04:06:16;;;;;;;121.40;51.23;;;;;;;6.36;98.90;98825.28;5114370;28;20667;-55
2023/01/10 04:08:44;;;;;;;113.90;52.53;;;;;;;6.41;98.23;98822.81;5113575;28;20196;-56
2023/01/10 04:11:11;;;;;;;123.43;51.17;;;;;;;6.42;98.47;98827.97;5114328;28;20189;-55
2023/01/10 04:13:40;;;;;;;112.47;50.30;;;;;;;6.48;97.88;98825.50;5114105;28;20681;-55
2023/01/10 04:16:08;;;;;;;97.63;49.53;;;;;;;6.51;98.11;98843.44;5113980;28;20668;-55
2023/01/10 04:18:34;;;;;;;103.73;51.90;;;;;;;6.56;97.63;98858.88;5113967;28;20690;-55
2023/01/10 04:21:01;;;;;;;108.87;51.53;;;;;;;6.56;97.62;98853.78;5114424;28;20188;-56
2023/01/10 04:23:28;;;;;;;104.10;48.30;;;;;;;6.59;97.42;98852.97;5114142;28;20193;-56
2023/01/10 04:25:56;;;;;;;105.00;49.37;;;;;;;6.58;97.27;98866.56;5113805;28;20196;-57
2023/01/10 04:28:23;;;;;;;118.85;55.03;;;;;;;6.58;97.52;98864.00;5113256;28;20904;-56
2023/01/10 04:30:50;;;;;;;106.77;48.97;;;;;;;6.53;97.15;98843.50;5114259;28;20200;-56
2023/01/10 04:33:16;;;;;;;101.70;50.10;;;;;;;6.62;97.28;98850.50;5113734;28;20194;-56
2023/01/10 04:35:48;;;;;;;105.37;49.27;;;;;;;6.64;96.72;98842.03;5113791;28;20685;-55
2023/01/10 04:38:15;;;;;;;104.03;49.13;;;;;;;6.63;97.25;98842.84;5113880;28;20221;-56
2023/01/10 04:40:42;;;;;;;92.47;47.13;;;;;;;6.66;96.67;98847.16;5114173;28;20258;-55
2023/01/10 04:43:11;;;;;;;90.50;46.27;;;;;;;6.69;96.32;98848.09;5113902;28;20212;-56
2023/01/10 04:45:38;;;;;;;105.60;50.50;;;;;;;6.74;96.12;98853.28;5113792;28;20560;-55
2023/01/10 04:48:05;;;;;;;108.67;51.27;;;;;;;6.75;95.79;98844.81;5113460;28;20193;-56
2023/01/10 04:50:32;;;;;;;112.47;54.07;;;;;;;6.69;96.32;98844.69;5113497;28;20203;-55
2023/01/10 04:52:59;;;;;;;120.40;56.73;;;;;;;6.60;95.73;98837.69;5113480;28;20193;-56
2023/01/10 04:55:26;;;;;;;131.13;55.43;;;;;;;6.60;96.31;98844.47;5114148;28;20227;-56
2023/01/10 04:57:52;;;;;;;134.70;60.00;;;;;;;6.57;96.29;98835.06;5110950;28;20233;-55
2023/01/10 05:00:21;;;;;;;124.53;59.20;;;;;;;6.51;96.07;98840.91;5113030;28;20576;-55
2023/01/10 05:02:48;;;;;;;111.27;55.10;;;;;;;6.46;96.32;98834.84;5095372;28;20281;-55
2023/01/10 05:05:15;;;;;;;108.43;53.83;;;;;;;6.37;96.79;98814.22;5092704;28;20182;-55
2023/01/10 05:07:42;;;;;;;114.67;53.33;;;;;;;6.41;96.88;98820.25;5097584;28;20290;-55
2023/01/10 05:10:10;;;;;;;129.33;56.33;;;;;;;6.36;96.75;98820.16;5112778;28;20668;-55
2023/01/10 05:12:37;;;;;;;108.37;54.87;;;;;;;6.42;96.12;98824.53;5110376;28;20663;-56
2023/01/10 05:15:04;;;;;;;118.70;54.63;;;;;;;6.39;96.61;98817.69;5112838;28;20215;-56
2023/01/10 05:17:32;;;;;;;125.30;57.33;;;;;;;6.40;96.63;98831.31;5112993;28;20199;-55
2023/01/10 05:19:59;;;;;;;126.37;55.80;;;;;;;6.28;96.86;98808.94;5112955;28;20227;-55
2023/01/10 05:22:26;;;;;;;133.23;57.43;;;;;;;6.28;96.62;98814.03;5112607;28;20184;-56
2023/01/10 05:24:53;;;;;;;118.00;56.53;;;;;;;6.30;96.88;98812.38;5113110;28;20271;-55
2023/01/10 05:27:19;;;;;;;128.93;56.10;;;;;;;6.30;97.31;98820.03;5112943;28;20188;-55
2023/01/10 05:29:46;;;;;;;107.40;56.50;;;;;;;6.29;97.15;98817.47;5112715;28;20262;-55
2023/01/10 05:32:13;;;;;;;125.33;61.40;;;;;;;6.28;97.26;98800.41;5112769;28;20194;-55
2023/01/10 05:34:41;;;;;;;127.27;59.33;;;;;;;6.20;97.35;98804.50;5112796;28;20201;-55
2023/01/10 05:37:08;;;;;;;148.93;73.32;;;;;;;6.24;97.73;98791.81;5111743;28;20419;-56
2023/01/10 05:39:35;;;;;;;154.67;63.50;;;;;;;6.30;97.91;98791.97;5112498;28;20212;-56
2023/01/10 05:42:02;;;;;;;135.83;63.60;;;;;;;6.33;98.43;98773.31;5112872;28;20255;-56
2023/01/10 05:44:29;;;;;;;125.83;59.57;;;;;;;6.25;97.80;98774.84;5112682;28;20192;-56
2023/01/10 05:46:56;;;;;;;132.43;59.90;;;;;;;6.28;98.60;98788.53;5112459;28;20711;-55
2023/01/10 05:49:23;;;;;;;141.23;61.17;;;;;;;6.32;98.87;98792.84;5112390;28;20199;-55
2023/01/10 05:51:51;;;;;;;129.67;62.17;;;;;;;6.34;98.44;98778.47;5111149;28;20224;-55
2023/01/10 05:54:18;;;;;;;138.20;60.83;;;;;;;6.34;98.66;98783.56;5112015;28;20192;-55
2023/01/10 05:56:45;;;;;;;131.07;58.57;;;;;;;6.35;98.38;98782.72;5112369;28;20229;-56
2023/01/10 05:59:12;;;;;;;142.37;62.97;;;;;;;6.35;98.76;98787.81;5112110;28;20213;-55
2023/01/10 06:01:38;;;;;;;139.13;61.90;;;;;;;6.37;98.93;98791.25;5112023;28;20186;-55
2023/01/10 06:04:05;;;;;;;145.40;61.40;;;;;;;6.45;98.81;98805.06;5112170;28;20184;-56
2023/01/10 06:06:33;;;;;;;151.53;64.40;;;;;;;6.41;99.21;98800.72;5112099;28;20185;-55
2023/01/10 06:09:01;;;;;;;131.23;61.30;;;;;;;6.43;99.16;98800.72;5113419;28;20192;-55
2023/01/10 06:11:29;;;;;;;153.00;62.47;;;;;;;6.45;99.72;98799.97;5116679;28;20187;-55
2023/01/10 06:13:56;;;;;;;139.97;59.83;;;;;;;6.48;99.14;98802.56;5116564;28;20602;-55
2023/01/10 06:16:23;;;;;;;154.07;65.23;;;;;;;6.49;99.54;98809.38;5116879;28;20184;-56
2023/01/10 06:18:50;;;;;;;141.03;62.07;;;;;;;6.46;99.61;98816.09;5115807;28;20219;-55
2023/01/10 06:21:17;;;;;;;150.27;62.63;;;;;;;6.49;99.99;98799.19;5116023;28;20737;-55
2023/01/10 06:23:43;;;;;;;172.68;73.55;;;;;;;6.51;100.00;98794.97;5115478;28;20495;-55
2023/01/10 06:26:12;;;;;;;157.27;65.20;;;;;;;6.51;99.80;98807.72;5116463;28;20189;-55
2023/01/10 06:28:40;;;;;;;154.97;60.77;;;;;;;6.38;100.00;98789.56;5116070;28;20200;-56
2023/01/10 06:31:07;;;;;;;144.37;60.97;;;;;;;6.43;100.00;98806.69;5115882;28;20728;-56
2023/01/10 06:33:34;;;;;;;150.53;61.23;;;;;;;6.42;100.00;98807.56;5115771;28;20416;-56
2023/01/10 06:36:01;;;;;;;163.17;61.60;;;;;;;6.21;100.00;98781.56;5116504;28;20257;-55
2023/01/10 06:38:27;;;;;;;140.63;61.83;;;;;;;6.33;100.00;98786.06;5115698;28;20189;-56
2023/01/10 06:40:54;;;;;;;161.90;64.57;;;;;;;6.31;100.00;98795.38;5112730;28;20189;-56
2023/01/10 06:43:24;;;;;;;146.97;62.57;;;;;;;6.29;100.00;98792.78;5114851;28;20259;-56
2023/01/10 06:45:51;;;;;;;159.40;65.47;;;;;;;6.31;100.00;98790.28;5114732;28;20737;-55
2023/01/10 06:48:17;;;;;;;154.23;65.43;;;;;;;6.27;100.00;98791.91;5114916;28;20190;-55
2023/01/10 06:50:44;;;;;;;151.87;62.17;;;;;;;6.28;100.00;98795.31;5113057;28;20195;-56
2023/01/10 06:53:11;;;;;;;175.82;78.40;;;;;;;6.30;100.00;98791.09;5113373;28;20550;-57
2023/01/10 06:55:38;;;;;;;145.23;67.73;;;;;;;6.33;100.00;98796.28;5113813;28;20195;-56
2023/01/10 06:58:05;;;;;;;154.03;62.77;;;;;;;6.24;100.00;98789.28;5114397;28;20240;-55
2023/01/10 07:00:33;;;;;;;141.60;61.20;;;;;;;6.22;100.00;98795.19;5112967;28;20221;-55
2023/01/10 07:03:02;;;;;;;156.17;62.20;;;;;;;6.19;100.00;98795.09;5104294;28;20193;-55
2023/01/10 07:05:29;;;;;;;153.63;61.40;;;;;;;6.24;100.00;98785.88;5112859;28;20195;-56
2023/01/10 07:07:57;;;;;;;158.27;63.63;;;;;;;6.28;100.00;98774.91;5118171;27;20198;-57
2023/01/10 07:10:23;;;;;;;162.30;65.47;;;;;;;6.23;100.00;98785.03;5120432;27;20834;-56
2023/01/10 07:12:50;;;;;;;173.10;68.13;;;;;;;6.21;100.00;98762.84;5115454;27;20190;-58
2023/01/10 07:15:17;;;;;;;155.97;63.93;;;;;;;6.24;100.00;98779.06;5114291;28;20610;-56
2023/01/10 07:17:45;;;;;;;153.63;65.87;;;;;;;6.26;100.00;98764.66;5115822;28;20192;-56
2023/01/10 07:20:12;;;;;;;157.33;63.53;;;;;;;6.29;100.00;98769.00;5113307;28;20210;-56
2023/01/10 07:22:39;;;;;;;159.60;66.00;;;;;;;6.26;100.00;98764.66;5118468;27;20690;-56
2023/01/10 07:25:06;;;;;;;158.20;65.13;;;;;;;6.27;100.00;98763.84;5115164;28;20197;-56
2023/01/10 07:27:33;;;;;;;158.63;61.20;;;;;;;6.26;100.00;98762.09;5114543;28;20193;-55
2023/01/10 07:30:00;;;;;;;152.73;63.13;;;;;;;6.24;100.00;98757.81;5094646;28;20197;-55
2023/01/10 07:32:27;;;;;;;157.47;61.37;;;;;;;6.26;100.00;98748.53;5094495;28;20653;-56
2023/01/10 07:34:55;;;;;;;150.90;59.53;;;;;;;6.26;100.00;98740.88;5110755;28;20666;-55
2023/01/10 07:37:22;;;;;;;154.33;62.47;;;;;;;6.28;100.00;98732.41;5114809;28;20190;-56
2023/01/10 07:39:49;;;;;;;149.43;61.97;;;;;;;6.30;100.00;98728.19;5114413;28;20219;-56
2023/01/10 07:42:16;;;;;;;152.53;56.10;;;;;;;6.33;100.00;98718.06;5114430;28;20189;-55
2023/01/10 07:44:42;;;;;;;147.67;54.87;;;;;;;6.35;100.00;98728.28;5114377;28;20193;-56
2023/01/10 07:47:09;;;;;;;150.70;59.47;;;;;;;6.25;100.00;98717.06;5115131;28;20189;-56
2023/01/10 07:49:36;;;;;;;133.57;54.83;;;;;;;6.28;100.00;98722.22;5114553;28;20565;-56
2023/01/10 07:52:07;;;;;;;165.73;58.37;;;;;;;6.37;100.00;98721.53;5114489;28;20193;-56
2023/01/10 07:54:34;;;;;;;124.30;51.70;;;;;;;6.35;100.00;98729.16;5114597;28;20658;-56
2023/01/10 07:57:02;;;;;;;118.83;48.73;;;;;;;6.36;100.00;98715.56;5114361;28;20224;-56
2023/01/10 07:59:28;;;;;;;119.83;51.47;;;;;;;6.40;100.00;98717.34;5108001;28;20270;-56
2023/01/10 08:01:55;;;;;;;132.30;49.53;;;;;;;6.40;100.00;98714.78;5113527;28;20194;-56
2023/01/10 08:04:22;;;;;;;121.20;49.00;;;;;;;6.39;100.00;98692.69;5113543;28;20599;-56
2023/01/10 08:06:49;;;;;;;125.23;51.37;;;;;;;6.45;100.00;98694.50;5113410;28;20192;-56
2023/01/10 08:09:17;;;;;;;126.90;50.80;;;;;;;6.52;100.00;98686.97;5113492;28;20185;-56
2023/01/10 08:11:44;;;;;;;111.00;47.60;;;;;;;6.52;100.00;98686.97;5112462;28;20198;-56
2023/01/10 08:14:11;;;;;;;131.57;54.07;;;;;;;6.53;100.00;98686.16;5110822;28;20185;-56
2023/01/10 08:16:37;;;;;;;120.10;49.07;;;;;;;6.48;100.00;98676.69;5112486;28;20685;-56
2023/01/10 08:19:04;;;;;;;134.40;53.80;;;;;;;6.51;100.00;98682.69;5113852;28;20189;-55
2023/01/10 08:21:31;;;;;;;146.03;56.73;;;;;;;6.49;100.00;98683.50;5113874;28;20192;-56
2023/01/10 08:23:58;;;;;;;144.63;59.90;;;;;;;6.45;100.00;98702.16;5113954;28;20215;-56
2023/01/10 08:26:26;;;;;;;149.13;60.80;;;;;;;6.33;100.00;98701.88;5113805;28;20278;-56
2023/01/10 08:28:53;;;;;;;160.70;64.50;;;;;;;6.23;100.00;98683.00;5113574;28;20185;-56
2023/01/10 08:31:20;;;;;;;155.30;59.83;;;;;;;6.34;100.00;98704.50;5112852;28;20186;-56
2023/01/10 08:33:46;;;;;;;138.80;65.67;;;;;;;6.34;100.00;98695.97;5113368;28;20196;-55
2023/01/10 08:36:17;;;;;;;141.73;63.37;;;;;;;6.27;100.00;98683.91;5109210;28;20196;-56
2023/01/10 08:38:44;;;;;;;157.77;66.43;;;;;;;6.24;100.00;98668.53;5110955;28;20189;-56
2023/01/10 08:41:12;;;;;;;156.17;62.73;;;;;;;6.32;100.00;98665.31;5113487;28;20566;-55
2023/01/10 08:43:40;;;;;;;140.47;59.17;;;;;;;6.31;100.00;98665.31;5111952;28;20200;-56
2023/01/10 08:46:07;;;;;;;153.40;62.03;;;;;;;6.34;100.00;98662.81;5113210;28;20200;-56
2023/01/10 08:48:34;;;;;;;145.93;57.97;;;;;;;6.33;100.00;98663.63;5113294;28;20653;-55
2023/01/10 08:51:06;;;;;;;141.53;58.87;;;;;;;6.35;100.00;98661.97;5113105;28;20191;-56
2023/01/10 08:53:33;;;;;;;134.50;57.83;;;;;;;6.34;100.00;98657.72;5113174;28;20289;-55
2023/01/10 08:56:00;;;;;;;139.87;59.20;;;;;;;6.37;100.00;98662.88;5113162;28;20190;-56
2023/01/10 08:58:26;;;;;;;125.03;56.40;;;;;;;6.32;100.00;98655.09;5113042;28;20682;-55
2023/01/10 09:00:55;;;;;;;133.60;55.40;;;;;;;6.28;100.00;98655.91;5112890;28;20213;-55
2023/01/10 09:03:22;;;;;;;122.57;56.87;;;;;;;6.29;100.00;98649.94;5113388;28;20265;-55
2023/01/10 09:05:49;;;;;;;115.83;52.77;;;;;;;6.33;100.00;98650.88;5112538;28;20188;-55
2023/01/10 09:08:15;;;;;;;136.82;68.20;;;;;;;6.46;100.00;98646.03;5111374;28;20430;-55
2023/01/10 09:10:42;;;;;;;112.03;49.90;;;;;;;6.47;100.00;98637.56;5113403;28;20193;-56
2023/01/10 09:13:09;;;;;;;111.63;48.00;;;;;;;6.52;100.00;98623.19;5112742;28;20198;-55
2023/01/10 09:15:38;;;;;;;98.80;46.20;;;;;;;6.57;100.00;98617.28;5112729;28;20199;-56
2023/01/10 09:18:07;;;;;;;99.80;51.28;;;;;;;6.59;100.00;98613.97;5112277;28;20430;-55
2023/01/10 09:20:36;;;;;;;88.47;45.37;;;;;;;6.65;100.00;98615.75;5112838;28;20221;-55
2023/01/10 09:23:05;;;;;;;89.77;44.40;;;;;;;6.61;100.00;98614.84;5112241;28;20245;-55
2023/01/10 09:25:33;;;;;;;86.43;42.97;;;;;;;6.58;100.00;98611.38;5113105;28;20190;-55
2023/01/10 09:28:02;;;;;;;85.03;44.27;;;;;;;6.56;100.00;98585.84;5112682;28;20192;-55
2023/01/10 09:30:30;;;;;;;85.50;42.67;;;;;;;6.63;100.00;98594.44;5112636;28;20253;-56
2023/01/10 09:32:58;;;;;;;86.53;44.47;;;;;;;6.62;100.00;98585.09;5112701;28;20595;-56
2023/01/10 09:35:28;;;;;;;90.70;44.63;;;;;;;6.61;100.00;98584.22;5112575;28;20188;-56
2023/01/10 09:37:56;;;;;;;84.87;44.33;;;;;;;6.66;100.00;98587.69;5112431;28;20192;-56
2023/01/10 09:40:36;;;;;;;81.53;45.00;;;;;;;6.66;100.00;98574.94;5112378;28;20718;-56
2023/01/10 09:43:14;;;;;;;81.83;43.03;;;;;;;6.28;100.00;98490.13;5112019;28;20272;-55
2023/01/10 09:45:51;;;;;;;78.20;41.10;;;;;;;6.64;100.00;98553.66;5112534;28;20666;-56
2023/01/10 09:48:24;;;;;;;91.33;42.27;;;;;;;6.62;100.00;98534.03;5112529;28;20195;-56
2023/01/10 09:51:05;;;;;;;77.80;40.50;;;;;;;6.71;100.00;98547.78;5112863;28;20199;-54
2023/01/10 09:53:34;;;;;;;68.57;39.47;;;;;;;6.70;100.00;98545.22;5112574;28;20243;-54
2023/01/10 09:56:02;;;;;;;86.73;42.13;;;;;;;6.69;100.00;98538.41;5112524;28;20189;-55
2023/01/10 09:58:32;;;;;;;88.97;44.17;;;;;;;6.78;100.00;98533.44;5112396;28;20188;-55
2023/01/10 10:01:03;;;;;;;81.23;40.43;;;;;;;6.80;100.00;98530.09;5111288;28;20217;-56
2023/01/10 10:03:37;;;;;;;75.63;42.17;;;;;;;6.73;100.00;98512.09;5112830;28;20263;-56
2023/01/10 10:06:05;;;;;;;76.00;38.47;;;;;;;6.89;100.00;98519.16;5112078;28;20193;-56
2023/01/10 10:08:32;;;;;;;69.33;38.53;;;;;;;6.89;100.00;98524.25;5112177;28;20546;-55
2023/01/10 10:11:14;;;;;;;69.60;37.20;;;;;;;6.88;100.00;98523.41;5112245;28;20192;-55
2023/01/10 10:13:49;;;;;;;71.93;39.33;;;;;;;6.88;100.00;98507.22;5109748;28;20192;-56
2023/01/10 10:16:28;;;;;;;73.37;39.17;;;;;;;6.96;100.00;98518.41;5105450;28;20652;-56
2023/01/10 10:19:05;;;;;;;85.68;44.92;;;;;;;6.99;100.00;98508.22;5109696;28;20439;-56
2023/01/10 10:21:44;;;;;;;78.27;41.10;;;;;;;7.03;100.00;98504.91;5109608;28;20212;-57
2023/01/10 10:24:24;;;;;;;83.47;40.37;;;;;;;7.02;100.00;98498.06;5109487;28;20282;-55
2023/01/10 10:26:58;;;;;;;76.93;40.13;;;;;;;7.06;100.00;98485.34;5104850;28;20196;-56
2023/01/10 10:29:57;;;;;;;97.85;46.85;;;;;;;7.08;100.00;98478.59;5106345;28;20427;-56
2023/01/10 10:32:35;;;;;;;85.20;44.90;;;;;;;7.12;100.00;98472.66;5085832;28;20186;-56
2023/01/10 10:35:08;;;;;;;84.03;45.10;;;;;;;7.19;100.00;98471.06;5108467;28;20199;-56
2023/01/10 10:37:41;;;;;;;83.93;45.10;;;;;;;7.13;100.00;98456.53;5110496;28;20196;-55
2023/01/10 10:40:18;;;;;;;77.00;42.13;;;;;;;7.07;99.47;98443.66;5098927;28;20221;-56
2023/01/10 10:42:47;;;;;;;87.70;42.57;;;;;;;7.07;100.00;98450.47;5091066;28;20308;-55
2023/01/10 10:45:19;;;;;;;79.70;43.43;;;;;;;7.08;100.00;98436.88;5091612;28;20623;-55
2023/01/10 10:47:53;;;;;;;95.97;47.73;;;;;;;7.00;100.00;98429.09;5101042;28;20197;-55
2023/01/10 10:50:27;;;;;;;90.57;47.90;;;;;;;6.98;100.00;98412.03;5091600;28;20631;-55
2023/01/10 10:52:55;;;;;;;101.40;48.03;;;;;;;6.97;100.00;98426.53;5092121;28;20561;-55
2023/01/10 10:55:29;;;;;;;106.53;49.37;;;;;;;6.75;100.00;98396.44;5092487;28;20196;-55
2023/01/10 10:57:57;;;;;;;104.90;49.90;;;;;;;6.88;100.00;98418.72;5114351;28;20282;-55
2023/01/10 11:00:24;;;;;;;102.40;51.23;;;;;;;6.87;100.00;98428.91;5098935;28;20236;-54
2023/01/10 11:02:56;;;;;;;107.10;52.80;;;;;;;6.86;100.00;98428.06;5095018;28;20302;-53
2023/01/10 11:05:32;;;;;;;107.00;52.57;;;;;;;6.85;100.00;98430.59;5095044;28;20194;-54
2023/01/10 11:08:07;;;;;;;109.83;55.00;;;;;;;6.83;100.00;98427.16;5095420;28;20198;-54
2023/01/10 11:10:34;;;;;;;114.70;55.33;;;;;;;6.88;100.00;98408.50;5098434;28;20691;-54
2023/01/10 11:13:03;;;;;;;115.40;54.27;;;;;;;6.87;100.00;98394.03;5111831;28;20247;-54
2023/01/10 11:15:39;;;;;;;114.03;54.97;;;;;;;6.87;100.00;98380.41;5106544;28;20560;-54
2023/01/10 11:18:11;;;;;;;106.40;54.67;;;;;;;6.78;100.00;98372.63;5114191;28;20655;-55
2023/01/10 11:20:46;;;;;;;138.03;60.50;;;;;;;6.87;100.00;98383.81;5114405;28;20695;-55
2023/01/10 11:23:22;;;;;;;113.17;54.73;;;;;;;6.77;100.00;98356.47;5114341;28;20201;-54
2023/01/10 11:25:49;;;;;;;111.70;58.57;;;;;;;6.81;100.00;98365.84;5113857;27;20264;-54
2023/01/10 11:28:17;;;;;;;113.43;56.60;;;;;;;6.78;100.00;98350.53;5121474;27;20192;-54
2023/01/10 11:30:48;;;;;;;110.93;57.30;;;;;;;6.81;100.00;98357.38;5122736;27;20437;-53
2023/01/10 11:33:21;;;;;;;113.90;56.50;;;;;;;6.84;100.00;98367.63;5119635;27;20197;-56
2023/01/10 11:35:59;;;;;;;116.67;57.87;;;;;;;6.82;100.00;98367.59;5117418;27;20323;-56
2023/01/10 11:38:29;;;;;;;116.37;56.57;;;;;;;6.84;100.00;98365.06;5115557;28;20211;-56